sensor_id;sensor_type;location;lat;lon;timestamp;temperature;humidity
64715;DHT22;51144;53.002;6.506;2023-02-08T00:00:22;-1.10;99.90
64715;DHT22;51144;53.002;6.506;2023-02-08T00:02:48;-1.10;99.90
64715;DHT22;51144;53.002;6.506;2023-02-08T00:05:15;-1.20;99.90
64715;DHT22;51144;53.002;6.506;2023-02-08T00:07:41;-1.20;99.90
64715;DHT22;51144;53.002;6.506;2023-02-08T00:10:07;-1.20;99.90
64715;DHT22;51144;53.002;6.506;2023-02-08T00:12:34;-1.20;99.90
64715;DHT22;51144;53.002;6.506;2023-02-08T00:15:00;-1.20;99.90
64715;DHT22;51144;53.002;6.506;2023-02-08T00:17:26;-1.20;99.90
64715;DHT22;51144;53.002;6.506;2023-02-08T00:19:52;-1.20;99.90
64715;DHT22;51144;53.002;6.506;2023-02-08T00:22:17;-1.20;99.90
64715;DHT22;51144;53.002;6.506;2023-02-08T00:24:43;-1.30;99.90
64715;DHT22;51144;53.002;6.506;2023-02-08T00:27:09;-1.30;99.90
64715;DHT22;51144;53.002;6.506;2023-02-08T00:29:34;-1.20;99.90
64715;DHT22;51144;53.002;6.506;2023-02-08T00:32:00;-1.20;99.90
64715;DHT22;51144;53.002;6.506;2023-02-08T00:34:26;-1.20;99.90
64715;DHT22;51144;53.002;6.506;2023-02-08T00:36:52;-1.20;99.90
64715;DHT22;51144;53.002;6.506;2023-02-08T00:39:17;-1.10;99.90
64715;DHT22;51144;53.002;6.506;2023-02-08T00:41:45;-1.10;99.90
64715;DHT22;51144;53.002;6.506;2023-02-08T00:44:11;-1.10;99.90
64715;DHT22;51144;53.002;6.506;2023-02-08T00:46:37;-1.00;99.90
64715;DHT22;51144;53.002;6.506;2023-02-08T00:49:02;-1.00;99.90
64715;DHT22;51144;53.002;6.506;2023-02-08T00:51:28;-1.00;99.90
64715;DHT22;51144;53.002;6.506;2023-02-08T00:53:54;-1.00;99.90
64715;DHT22;51144;53.002;6.506;2023-02-08T00:56:19;-1.00;99.90
64715;DHT22;51144;53.002;6.506;2023-02-08T00:58:45;-1.00;99.90
64715;DHT22;51144;53.002;6.506;2023-02-08T01:01:12;-0.90;99.90
64715;DHT22;51144;53.002;6.506;2023-02-08T01:03:39;-0.90;99.90
64715;DHT22;51144;53.002;6.506;2023-02-08T01:06:08;-0.90;99.90
64715;DHT22;51144;53.002;6.506;2023-02-08T01:08:35;-0.90;99.90
64715;DHT22;51144;53.002;6.506;2023-02-08T01:11:11;-0.90;99.90
64715;DHT22;51144;53.002;6.506;2023-02-08T01:13:38;-1.00;99.90
64715;DHT22;51144;53.002;6.506;2023-02-08T01:16:15;-1.00;99.90
64715;DHT22;51144;53.002;6.506;2023-02-08T01:18:43;-1.00;99.90
64715;DHT22;51144;53.002;6.506;2023-02-08T01:21:14;-1.10;99.90
64715;DHT22;51144;53.002;6.506;2023-02-08T01:23:40;-1.10;99.90
64715;DHT22;51144;53.002;6.506;2023-02-08T01:26:07;-1.10;99.90
64715;DHT22;51144;53.002;6.506;2023-02-08T01:28:33;-1.20;99.90
64715;DHT22;51144;53.002;6.506;2023-02-08T01:31:04;-1.20;99.90
64715;DHT22;51144;53.002;6.506;2023-02-08T01:33:30;-1.20;99.90
64715;DHT22;51144;53.002;6.506;2023-02-08T01:35:56;-1.30;99.90
64715;DHT22;51144;53.002;6.506;2023-02-08T01:38:22;-1.30;99.90
64715;DHT22;51144;53.002;6.506;2023-02-08T01:40:47;-1.30;99.90
64715;DHT22;51144;53.002;6.506;2023-02-08T01:43:23;-1.30;99.90
64715;DHT22;51144;53.002;6.506;2023-02-08T01:45:50;-1.30;99.90
64715;DHT22;51144;53.002;6.506;2023-02-08T01:48:22;-1.30;99.90
64715;DHT22;51144;53.002;6.506;2023-02-08T01:53:28;-1.30;99.90
64715;DHT22;51144;53.002;6.506;2023-02-08T01:55:58;-1.30;99.90
64715;DHT22;51144;53.002;6.506;2023-02-08T01:58:26;-1.30;99.90
64715;DHT22;51144;53.002;6.506;2023-02-08T02:00:53;-1.30;99.90
64715;DHT22;51144;53.002;6.506;2023-02-08T02:03:20;-1.20;99.90
64715;DHT22;51144;53.002;6.506;2023-02-08T02:05:50;-1.20;99.90
64715;DHT22;51144;53.002;6.506;2023-02-08T02:08:16;-1.20;99.90
64715;DHT22;51144;53.002;6.506;2023-02-08T02:10:43;-1.20;99.90
64715;DHT22;51144;53.002;6.506;2023-02-08T02:13:16;-1.20;99.90
64715;DHT22;51144;53.002;6.506;2023-02-08T02:15:43;-1.20;99.90
64715;DHT22;51144;53.002;6.506;2023-02-08T02:18:09;-1.20;99.90
64715;DHT22;51144;53.002;6.506;2023-02-08T02:23:49;-1.20;99.90
64715;DHT22;51144;53.002;6.506;2023-02-08T02:43:07;-1.40;99.90
64715;DHT22;51144;53.002;6.506;2023-02-08T02:51:04;-1.40;99.90
64715;DHT22;51144;53.002;6.506;2023-02-08T02:53:58;-1.30;99.90
64715;DHT22;51144;53.002;6.506;2023-02-08T02:56:28;-1.30;99.90
64715;DHT22;51144;53.002;6.506;2023-02-08T02:58:57;-1.30;99.90
64715;DHT22;51144;53.002;6.506;2023-02-08T03:01:25;-1.30;99.90
64715;DHT22;51144;53.002;6.506;2023-02-08T03:03:52;-1.30;99.90
64715;DHT22;51144;53.002;6.506;2023-02-08T03:06:45;-1.30;99.90
64715;DHT22;51144;53.002;6.506;2023-02-08T03:12:52;-1.30;99.90
64715;DHT22;51144;53.002;6.506;2023-02-08T03:19:33;-1.30;99.90
64715;DHT22;51144;53.002;6.506;2023-02-08T03:21:44;-1.30;99.90
64715;DHT22;51144;53.002;6.506;2023-02-08T03:24:25;-1.30;99.90
64715;DHT22;51144;53.002;6.506;2023-02-08T03:27:00;-1.30;99.90
64715;DHT22;51144;53.002;6.506;2023-02-08T03:29:53;-1.30;99.90
64715;DHT22;51144;53.002;6.506;2023-02-08T03:32:45;-1.40;99.90
64715;DHT22;51144;53.002;6.506;2023-02-08T03:38:03;-1.30;99.90
64715;DHT22;51144;53.002;6.506;2023-02-08T03:40:38;-1.30;99.90
64715;DHT22;51144;53.002;6.506;2023-02-08T03:43:09;-1.30;99.90
64715;DHT22;51144;53.002;6.506;2023-02-08T03:45:39;-1.30;99.90
64715;DHT22;51144;53.002;6.506;2023-02-08T03:48:08;-1.30;99.90
64715;DHT22;51144;53.002;6.506;2023-02-08T03:50:38;-1.30;99.90
64715;DHT22;51144;53.002;6.506;2023-02-08T03:53:06;-1.40;99.90
64715;DHT22;51144;53.002;6.506;2023-02-08T03:55:35;-1.40;99.90
64715;DHT22;51144;53.002;6.506;2023-02-08T03:58:15;-1.30;99.90
64715;DHT22;51144;53.002;6.506;2023-02-08T04:00:47;-1.40;99.90
64715;DHT22;51144;53.002;6.506;2023-02-08T04:03:25;-1.40;99.90
64715;DHT22;51144;53.002;6.506;2023-02-08T04:05:52;-1.40;99.90
64715;DHT22;51144;53.002;6.506;2023-02-08T04:08:18;-1.40;99.90
64715;DHT22;51144;53.002;6.506;2023-02-08T04:10:45;-1.40;99.90
64715;DHT22;51144;53.002;6.506;2023-02-08T04:13:11;-1.40;99.90
64715;DHT22;51144;53.002;6.506;2023-02-08T04:15:37;-1.40;99.90
64715;DHT22;51144;53.002;6.506;2023-02-08T04:18:03;-1.50;99.90
64715;DHT22;51144;53.002;6.506;2023-02-08T04:20:28;-1.50;99.90
64715;DHT22;51144;53.002;6.506;2023-02-08T04:22:54;-1.50;99.90
64715;DHT22;51144;53.002;6.506;2023-02-08T04:25:19;-1.50;99.90
64715;DHT22;51144;53.002;6.506;2023-02-08T04:27:45;-1.50;99.90
64715;DHT22;51144;53.002;6.506;2023-02-08T04:30:11;-1.50;99.90
64715;DHT22;51144;53.002;6.506;2023-02-08T04:32:37;-1.60;99.90
64715;DHT22;51144;53.002;6.506;2023-02-08T04:35:03;-1.60;99.90
64715;DHT22;51144;53.002;6.506;2023-02-08T04:37:29;-1.60;99.90
64715;DHT22;51144;53.002;6.506;2023-02-08T04:39:54;-1.60;99.90
64715;DHT22;51144;53.002;6.506;2023-02-08T04:42:20;-1.60;99.90
64715;DHT22;51144;53.002;6.506;2023-02-08T04:44:45;-1.60;99.90
64715;DHT22;51144;53.002;6.506;2023-02-08T04:47:11;-1.50;99.90
64715;DHT22;51144;53.002;6.506;2023-02-08T04:49:37;-1.60;99.90
64715;DHT22;51144;53.002;6.506;2023-02-08T04:52:03;-1.50;99.90
64715;DHT22;51144;53.002;6.506;2023-02-08T04:54:28;-1.50;99.90
64715;DHT22;51144;53.002;6.506;2023-02-08T04:56:54;-1.50;99.90
64715;DHT22;51144;53.002;6.506;2023-02-08T04:59:20;-1.50;99.90
64715;DHT22;51144;53.002;6.506;2023-02-08T05:01:45;-1.50;99.90
64715;DHT22;51144;53.002;6.506;2023-02-08T05:04:13;-1.50;99.90
64715;DHT22;51144;53.002;6.506;2023-02-08T05:06:38;-1.50;99.90
64715;DHT22;51144;53.002;6.506;2023-02-08T05:09:08;-1.60;99.90
64715;DHT22;51144;53.002;6.506;2023-02-08T05:11:34;-1.60;99.90
64715;DHT22;51144;53.002;6.506;2023-02-08T05:14:01;-1.60;99.90
64715;DHT22;51144;53.002;6.506;2023-02-08T05:16:26;-1.60;99.90
64715;DHT22;51144;53.002;6.506;2023-02-08T05:18:55;-1.60;99.90
64715;DHT22;51144;53.002;6.506;2023-02-08T05:21:21;-1.70;99.90
64715;DHT22;51144;53.002;6.506;2023-02-08T05:23:49;-1.70;99.90
64715;DHT22;51144;53.002;6.506;2023-02-08T05:26:15;-1.70;99.90
64715;DHT22;51144;53.002;6.506;2023-02-08T05:28:40;-1.70;99.90
64715;DHT22;51144;53.002;6.506;2023-02-08T05:33:39;-1.80;99.90
64715;DHT22;51144;53.002;6.506;2023-02-08T05:36:05;-1.80;99.90
64715;DHT22;51144;53.002;6.506;2023-02-08T05:38:31;-1.80;99.90
64715;DHT22;51144;53.002;6.506;2023-02-08T05:40:57;-1.80;99.90
64715;DHT22;51144;53.002;6.506;2023-02-08T05:43:22;-1.80;99.90
64715;DHT22;51144;53.002;6.506;2023-02-08T05:45:49;-1.80;99.90
64715;DHT22;51144;53.002;6.506;2023-02-08T05:48:15;-1.80;99.90
64715;DHT22;51144;53.002;6.506;2023-02-08T05:50:40;-1.90;99.90
64715;DHT22;51144;53.002;6.506;2023-02-08T05:53:07;-1.90;99.90
64715;DHT22;51144;53.002;6.506;2023-02-08T05:55:33;-1.90;99.90
64715;DHT22;51144;53.002;6.506;2023-02-08T05:57:58;-1.90;99.90
64715;DHT22;51144;53.002;6.506;2023-02-08T06:00:24;-1.90;99.90
64715;DHT22;51144;53.002;6.506;2023-02-08T06:02:50;-1.90;99.90
64715;DHT22;51144;53.002;6.506;2023-02-08T06:05:15;-1.90;99.90
64715;DHT22;51144;53.002;6.506;2023-02-08T06:07:41;-1.90;99.90
64715;DHT22;51144;53.002;6.506;2023-02-08T06:10:07;-1.90;99.90
64715;DHT22;51144;53.002;6.506;2023-02-08T06:12:33;-1.90;99.90
64715;DHT22;51144;53.002;6.506;2023-02-08T06:14:58;-1.90;99.90
64715;DHT22;51144;53.002;6.506;2023-02-08T06:17:24;-1.90;99.90
64715;DHT22;51144;53.002;6.506;2023-02-08T06:19:50;-2.00;99.90
64715;DHT22;51144;53.002;6.506;2023-02-08T06:22:15;-2.00;99.90
64715;DHT22;51144;53.002;6.506;2023-02-08T06:24:41;-2.00;99.90
64715;DHT22;51144;53.002;6.506;2023-02-08T06:27:07;-2.00;99.90
64715;DHT22;51144;53.002;6.506;2023-02-08T06:29:32;-2.00;99.90
64715;DHT22;51144;53.002;6.506;2023-02-08T06:31:58;-2.00;99.90
64715;DHT22;51144;53.002;6.506;2023-02-08T06:34:24;-2.00;99.90
64715;DHT22;51144;53.002;6.506;2023-02-08T06:36:49;-2.00;99.90
64715;DHT22;51144;53.002;6.506;2023-02-08T06:39:15;-2.00;99.90
64715;DHT22;51144;53.002;6.506;2023-02-08T06:41:41;-2.00;99.90
64715;DHT22;51144;53.002;6.506;2023-02-08T06:44:06;-1.90;99.90
64715;DHT22;51144;53.002;6.506;2023-02-08T06:46:32;-1.90;99.90
64715;DHT22;51144;53.002;6.506;2023-02-08T06:48:58;-1.90;99.90
64715;DHT22;51144;53.002;6.506;2023-02-08T06:51:25;-1.90;99.90
64715;DHT22;51144;53.002;6.506;2023-02-08T06:53:51;-1.90;99.90
64715;DHT22;51144;53.002;6.506;2023-02-08T06:56:17;-1.80;99.90
64715;DHT22;51144;53.002;6.506;2023-02-08T06:58:42;-1.80;99.90
64715;DHT22;51144;53.002;6.506;2023-02-08T07:01:14;-1.80;99.90
64715;DHT22;51144;53.002;6.506;2023-02-08T07:03:40;-1.80;99.90
64715;DHT22;51144;53.002;6.506;2023-02-08T07:06:15;-1.80;99.90
64715;DHT22;51144;53.002;6.506;2023-02-08T07:08:41;-1.80;99.90
64715;DHT22;51144;53.002;6.506;2023-02-08T07:11:08;-1.80;99.90
64715;DHT22;51144;53.002;6.506;2023-02-08T07:13:35;-1.80;99.90
64715;DHT22;51144;53.002;6.506;2023-02-08T07:16:03;-1.80;99.90
64715;DHT22;51144;53.002;6.506;2023-02-08T07:18:29;-1.80;99.90
64715;DHT22;51144;53.002;6.506;2023-02-08T07:20:54;-1.70;99.90
64715;DHT22;51144;53.002;6.506;2023-02-08T07:23:20;-1.70;99.90
64715;DHT22;51144;53.002;6.506;2023-02-08T07:26:01;-1.60;99.90
64715;DHT22;51144;53.002;6.506;2023-02-08T07:28:27;-1.70;99.90
64715;DHT22;51144;53.002;6.506;2023-02-08T07:30:53;-1.60;99.90
64715;DHT22;51144;53.002;6.506;2023-02-08T07:33:20;-1.60;99.90
64715;DHT22;51144;53.002;6.506;2023-02-08T07:35:46;-1.50;99.90
64715;DHT22;51144;53.002;6.506;2023-02-08T07:38:11;-1.50;99.90
64715;DHT22;51144;53.002;6.506;2023-02-08T07:40:37;-1.50;99.90
64715;DHT22;51144;53.002;6.506;2023-02-08T15:11:27;8.10;93.30
64715;DHT22;51144;53.002;6.506;2023-02-08T15:13:56;7.90;93.70
64715;DHT22;51144;53.002;6.506;2023-02-08T15:16:28;7.90;94.80
64715;DHT22;51144;53.002;6.506;2023-02-08T15:18:54;7.80;91.30
64715;DHT22;51144;53.002;6.506;2023-02-08T15:21:22;7.80;93.80
64715;DHT22;51144;53.002;6.506;2023-02-08T15:23:59;7.80;91.80
64715;DHT22;51144;53.002;6.506;2023-02-08T15:26:26;7.80;92.20
64715;DHT22;51144;53.002;6.506;2023-02-08T15:28:52;7.70;92.60
64715;DHT22;51144;53.002;6.506;2023-02-08T15:31:20;7.70;92.70
64715;DHT22;51144;53.002;6.506;2023-02-08T15:33:47;7.60;90.80
64715;DHT22;51144;53.002;6.506;2023-02-08T15:38:56;7.50;88.40
64715;DHT22;51144;53.002;6.506;2023-02-08T15:41:31;7.50;93.40
64715;DHT22;51144;53.002;6.506;2023-02-08T15:44:17;7.50;96.30
64715;DHT22;51144;53.002;6.506;2023-02-08T15:46:45;7.40;91.50
64715;DHT22;51144;53.002;6.506;2023-02-08T15:49:16;7.40;93.80
64715;DHT22;51144;53.002;6.506;2023-02-08T15:51:44;7.30;93.40
64715;DHT22;51144;53.002;6.506;2023-02-08T15:54:16;7.30;96.90
64715;DHT22;51144;53.002;6.506;2023-02-08T15:59:25;7.20;93.80
64715;DHT22;51144;53.002;6.506;2023-02-08T16:01:53;7.20;92.00
64715;DHT22;51144;53.002;6.506;2023-02-08T16:04:19;7.10;92.50
64715;DHT22;51144;53.002;6.506;2023-02-08T16:06:49;7.10;93.60
64715;DHT22;51144;53.002;6.506;2023-02-08T16:09:27;7.00;94.90
64715;DHT22;51144;53.002;6.506;2023-02-08T16:11:57;6.90;91.60
64715;DHT22;51144;53.002;6.506;2023-02-08T16:14:24;6.80;91.50
64715;DHT22;51144;53.002;6.506;2023-02-08T16:16:52;6.80;92.90
64715;DHT22;51144;53.002;6.506;2023-02-08T16:19:29;6.70;90.90
64715;DHT22;51144;53.002;6.506;2023-02-08T16:22:20;6.70;90.90
64715;DHT22;51144;53.002;6.506;2023-02-08T16:24:50;6.60;92.70
64715;DHT22;51144;53.002;6.506;2023-02-08T16:27:28;6.60;93.80
64715;DHT22;51144;53.002;6.506;2023-02-08T16:29:54;6.50;91.70
64715;DHT22;51144;53.002;6.506;2023-02-08T16:32:36;6.50;94.20
64715;DHT22;51144;53.002;6.506;2023-02-08T16:35:18;6.40;93.50
64715;DHT22;51144;53.002;6.506;2023-02-08T16:37:44;6.30;91.90
64715;DHT22;51144;53.002;6.506;2023-02-08T16:40:45;6.20;91.30
64715;DHT22;51144;53.002;6.506;2023-02-08T16:43:20;6.10;90.80
64715;DHT22;51144;53.002;6.506;2023-02-08T16:48:33;6.00;92.60
64715;DHT22;51144;53.002;6.506;2023-02-08T16:51:01;6.00;94.90
64715;DHT22;51144;53.002;6.506;2023-02-08T16:53:28;5.90;92.30
64715;DHT22;51144;53.002;6.506;2023-02-08T16:55:55;5.80;92.20
64715;DHT22;51144;53.002;6.506;2023-02-08T16:58:21;5.70;90.90
64715;DHT22;51144;53.002;6.506;2023-02-08T17:00:46;5.70;92.00
64715;DHT22;51144;53.002;6.506;2023-02-08T17:03:12;5.70;92.10
64715;DHT22;51144;53.002;6.506;2023-02-08T17:05:39;5.60;93.60
64715;DHT22;51144;53.002;6.506;2023-02-08T17:08:09;5.50;94.00
64715;DHT22;51144;53.002;6.506;2023-02-08T17:10:37;5.50;93.30
64715;DHT22;51144;53.002;6.506;2023-02-08T17:13:03;5.40;92.90
64715;DHT22;51144;53.002;6.506;2023-02-08T17:15:29;5.40;92.50
64715;DHT22;51144;53.002;6.506;2023-02-08T17:17:55;5.30;94.00
64715;DHT22;51144;53.002;6.506;2023-02-08T17:20:26;5.30;92.70
64715;DHT22;51144;53.002;6.506;2023-02-08T17:22:53;5.30;95.50
64715;DHT22;51144;53.002;6.506;2023-02-08T17:25:20;5.20;96.60
64715;DHT22;51144;53.002;6.506;2023-02-08T17:27:48;5.20;97.00
64715;DHT22;51144;53.002;6.506;2023-02-08T17:32:49;5.10;95.40
64715;DHT22;51144;53.002;6.506;2023-02-08T17:35:16;5.00;93.20
64715;DHT22;51144;53.002;6.506;2023-02-08T17:37:45;5.00;94.40
64715;DHT22;51144;53.002;6.506;2023-02-08T17:40:12;5.00;94.70
64715;DHT22;51144;53.002;6.506;2023-02-08T17:42:38;4.90;97.40
64715;DHT22;51144;53.002;6.506;2023-02-08T17:45:05;4.80;94.60
64715;DHT22;51144;53.002;6.506;2023-02-08T17:47:32;4.80;96.90
64715;DHT22;51144;53.002;6.506;2023-02-08T17:49:57;4.70;95.90
64715;DHT22;51144;53.002;6.506;2023-02-08T17:52:24;4.60;95.50
64715;DHT22;51144;53.002;6.506;2023-02-08T17:54:49;4.60;94.60
64715;DHT22;51144;53.002;6.506;2023-02-08T17:57:15;4.50;95.70
64715;DHT22;51144;53.002;6.506;2023-02-08T17:59:43;4.50;96.70
64715;DHT22;51144;53.002;6.506;2023-02-08T18:02:09;4.50;98.20
64715;DHT22;51144;53.002;6.506;2023-02-08T18:04:35;4.50;98.00
64715;DHT22;51144;53.002;6.506;2023-02-08T18:07:01;4.40;96.50
64715;DHT22;51144;53.002;6.506;2023-02-08T18:09:27;4.40;97.80
64715;DHT22;51144;53.002;6.506;2023-02-08T18:11:53;4.30;97.60
64715;DHT22;51144;53.002;6.506;2023-02-08T18:14:18;4.30;97.80
64715;DHT22;51144;53.002;6.506;2023-02-08T18:16:44;4.30;96.70
64715;DHT22;51144;53.002;6.506;2023-02-08T18:19:10;4.30;96.70
64715;DHT22;51144;53.002;6.506;2023-02-08T18:21:36;4.20;97.70
64715;DHT22;51144;53.002;6.506;2023-02-08T18:24:03;4.20;97.90
64715;DHT22;51144;53.002;6.506;2023-02-08T18:26:29;4.10;96.80
64715;DHT22;51144;53.002;6.506;2023-02-08T18:28:58;4.10;96.70
64715;DHT22;51144;53.002;6.506;2023-02-08T18:31:25;4.00;98.70
64715;DHT22;51144;53.002;6.506;2023-02-08T18:33:51;4.00;98.00
64715;DHT22;51144;53.002;6.506;2023-02-08T18:36:18;4.00;97.60
64715;DHT22;51144;53.002;6.506;2023-02-08T18:38:47;3.90;98.10
64715;DHT22;51144;53.002;6.506;2023-02-08T18:41:15;3.90;99.90
64715;DHT22;51144;53.002;6.506;2023-02-08T18:43:42;3.90;98.30
64715;DHT22;51144;53.002;6.506;2023-02-08T18:46:11;3.90;99.40
64715;DHT22;51144;53.002;6.506;2023-02-08T18:48:38;3.80;99.70
64715;DHT22;51144;53.002;6.506;2023-02-08T18:51:06;3.80;98.30
64715;DHT22;51144;53.002;6.506;2023-02-08T18:53:35;3.70;97.50
64715;DHT22;51144;53.002;6.506;2023-02-08T18:56:02;3.70;97.80
64715;DHT22;51144;53.002;6.506;2023-02-08T18:58:29;3.60;97.60
64715;DHT22;51144;53.002;6.506;2023-02-08T19:01:07;3.60;98.10
64715;DHT22;51144;53.002;6.506;2023-02-08T19:03:33;3.50;97.60
64715;DHT22;51144;53.002;6.506;2023-02-08T19:06:09;3.50;98.10
64715;DHT22;51144;53.002;6.506;2023-02-08T19:08:35;3.50;98.30
64715;DHT22;51144;53.002;6.506;2023-02-08T19:11:15;3.40;98.10
64715;DHT22;51144;53.002;6.506;2023-02-08T19:13:42;3.40;99.00
64715;DHT22;51144;53.002;6.506;2023-02-08T19:16:09;3.30;99.00
64715;DHT22;51144;53.002;6.506;2023-02-08T19:18:35;3.20;98.40
64715;DHT22;51144;53.002;6.506;2023-02-08T19:21:03;3.10;99.00
64715;DHT22;51144;53.002;6.506;2023-02-08T19:23:29;3.00;99.30
64715;DHT22;51144;53.002;6.506;2023-02-08T19:25:54;2.90;99.40
64715;DHT22;51144;53.002;6.506;2023-02-08T19:28:20;2.80;99.70
64715;DHT22;51144;53.002;6.506;2023-02-08T19:30:46;2.70;99.80
64715;DHT22;51144;53.002;6.506;2023-02-08T19:33:11;2.70;99.90
64715;DHT22;51144;53.002;6.506;2023-02-08T19:35:38;2.70;99.90
64715;DHT22;51144;53.002;6.506;2023-02-08T19:38:03;2.60;99.90
64715;DHT22;51144;53.002;6.506;2023-02-08T19:40:29;2.50;99.90
64715;DHT22;51144;53.002;6.506;2023-02-08T19:42:55;2.40;99.90
64715;DHT22;51144;53.002;6.506;2023-02-08T19:45:21;2.30;99.90
64715;DHT22;51144;53.002;6.506;2023-02-08T19:47:47;2.20;99.90
64715;DHT22;51144;53.002;6.506;2023-02-08T19:50:15;2.20;99.90
64715;DHT22;51144;53.002;6.506;2023-02-08T19:52:41;2.10;99.90
64715;DHT22;51144;53.002;6.506;2023-02-08T19:55:09;2.00;99.90
64715;DHT22;51144;53.002;6.506;2023-02-08T19:57:38;1.90;99.90
64715;DHT22;51144;53.002;6.506;2023-02-08T20:00:04;1.80;99.90
64715;DHT22;51144;53.002;6.506;2023-02-08T20:02:30;1.70;99.90
64715;DHT22;51144;53.002;6.506;2023-02-08T20:04:56;1.60;99.90
64715;DHT22;51144;53.002;6.506;2023-02-08T20:07:24;1.50;99.90
64715;DHT22;51144;53.002;6.506;2023-02-08T20:09:50;1.50;99.90
64715;DHT22;51144;53.002;6.506;2023-02-08T20:12:15;1.40;99.90
64715;DHT22;51144;53.002;6.506;2023-02-08T20:14:41;1.40;99.90
64715;DHT22;51144;53.002;6.506;2023-02-08T20:17:07;1.40;99.90
64715;DHT22;51144;53.002;6.506;2023-02-08T20:19:35;1.30;99.90
64715;DHT22;51144;53.002;6.506;2023-02-08T20:22:01;1.30;99.90
64715;DHT22;51144;53.002;6.506;2023-02-08T20:24:26;1.30;99.90
64715;DHT22;51144;53.002;6.506;2023-02-08T20:26:53;1.20;99.90
64715;DHT22;51144;53.002;6.506;2023-02-08T20:29:18;1.20;99.90
64715;DHT22;51144;53.002;6.506;2023-02-08T20:31:46;1.10;99.90
64715;DHT22;51144;53.002;6.506;2023-02-08T20:34:14;1.20;99.90
64715;DHT22;51144;53.002;6.506;2023-02-08T20:36:40;1.20;99.90
64715;DHT22;51144;53.002;6.506;2023-02-08T20:39:12;1.30;99.90
64715;DHT22;51144;53.002;6.506;2023-02-08T20:41:38;1.30;99.90
64715;DHT22;51144;53.002;6.506;2023-02-08T20:44:09;1.30;99.90
64715;DHT22;51144;53.002;6.506;2023-02-08T20:46:35;1.20;99.90
64715;DHT22;51144;53.002;6.506;2023-02-08T20:49:03;1.20;99.90
64715;DHT22;51144;53.002;6.506;2023-02-08T20:51:30;1.20;99.90
64715;DHT22;51144;53.002;6.506;2023-02-08T20:53:57;1.20;99.90
64715;DHT22;51144;53.002;6.506;2023-02-08T20:56:26;1.20;99.90
64715;DHT22;51144;53.002;6.506;2023-02-08T20:58:52;1.20;99.90
64715;DHT22;51144;53.002;6.506;2023-02-08T21:01:25;1.20;99.90
64715;DHT22;51144;53.002;6.506;2023-02-08T21:03:52;1.10;99.90
64715;DHT22;51144;53.002;6.506;2023-02-08T21:06:27;1.00;99.90
64715;DHT22;51144;53.002;6.506;2023-02-08T21:08:55;1.00;99.90
64715;DHT22;51144;53.002;6.506;2023-02-08T21:11:23;1.10;99.90
64715;DHT22;51144;53.002;6.506;2023-02-08T21:13:49;1.20;99.90
64715;DHT22;51144;53.002;6.506;2023-02-08T21:16:16;1.20;99.90
64715;DHT22;51144;53.002;6.506;2023-02-08T21:18:41;1.20;99.90
64715;DHT22;51144;53.002;6.506;2023-02-08T21:21:08;1.30;99.90
64715;DHT22;51144;53.002;6.506;2023-02-08T21:23:35;1.30;99.90
64715;DHT22;51144;53.002;6.506;2023-02-08T21:26:03;1.20;99.90
64715;DHT22;51144;53.002;6.506;2023-02-08T21:28:29;1.20;99.90
64715;DHT22;51144;53.002;6.506;2023-02-08T21:31:06;1.20;99.90
64715;DHT22;51144;53.002;6.506;2023-02-08T21:33:32;1.20;99.90
64715;DHT22;51144;53.002;6.506;2023-02-08T21:36:03;1.20;99.90
64715;DHT22;51144;53.002;6.506;2023-02-08T21:38:29;1.20;99.90
64715;DHT22;51144;53.002;6.506;2023-02-08T21:40:54;1.20;99.90
64715;DHT22;51144;53.002;6.506;2023-02-08T21:43:20;1.20;99.90
64715;DHT22;51144;53.002;6.506;2023-02-08T21:45:46;1.20;99.90
64715;DHT22;51144;53.002;6.506;2023-02-08T21:48:11;1.20;99.90
64715;DHT22;51144;53.002;6.506;2023-02-08T21:50:38;1.20;99.90
64715;DHT22;51144;53.002;6.506;2023-02-08T21:53:22;1.20;99.90
64715;DHT22;51144;53.002;6.506;2023-02-08T21:56:10;1.10;99.90
64715;DHT22;51144;53.002;6.506;2023-02-08T21:58:35;1.20;99.90
64715;DHT22;51144;53.002;6.506;2023-02-08T22:01:01;1.20;99.90
64715;DHT22;51144;53.002;6.506;2023-02-08T22:03:27;1.20;99.90
64715;DHT22;51144;53.002;6.506;2023-02-08T22:05:54;1.10;99.90
64715;DHT22;51144;53.002;6.506;2023-02-08T22:08:20;1.10;99.90
64715;DHT22;51144;53.002;6.506;2023-02-08T22:10:46;1.10;99.90
64715;DHT22;51144;53.002;6.506;2023-02-08T22:13:11;1.10;99.90
64715;DHT22;51144;53.002;6.506;2023-02-08T22:15:37;1.10;99.90
64715;DHT22;51144;53.002;6.506;2023-02-08T22:18:03;1.10;99.90
64715;DHT22;51144;53.002;6.506;2023-02-08T22:20:29;1.10;99.90
64715;DHT22;51144;53.002;6.506;2023-02-08T22:22:55;1.10;99.90
64715;DHT22;51144;53.002;6.506;2023-02-08T22:25:22;1.20;99.90
64715;DHT22;51144;53.002;6.506;2023-02-08T22:27:47;1.20;99.90
64715;DHT22;51144;53.002;6.506;2023-02-08T22:30:15;1.30;99.90
64715;DHT22;51144;53.002;6.506;2023-02-08T22:32:43;1.30;99.90
64715;DHT22;51144;53.002;6.506;2023-02-08T22:35:10;1.40;99.90
64715;DHT22;51144;53.002;6.506;2023-02-08T22:37:36;1.40;99.90
64715;DHT22;51144;53.002;6.506;2023-02-08T22:40:02;1.40;99.90
64715;DHT22;51144;53.002;6.506;2023-02-08T22:42:28;1.50;99.90
64715;DHT22;51144;53.002;6.506;2023-02-08T22:44:54;1.50;99.90
64715;DHT22;51144;53.002;6.506;2023-02-08T22:47:21;1.40;99.90
64715;DHT22;51144;53.002;6.506;2023-02-08T22:49:46;1.40;99.90
64715;DHT22;51144;53.002;6.506;2023-02-08T22:52:13;1.40;99.90
64715;DHT22;51144;53.002;6.506;2023-02-08T22:54:40;1.50;99.90
64715;DHT22;51144;53.002;6.506;2023-02-08T22:57:06;1.50;99.90
64715;DHT22;51144;53.002;6.506;2023-02-08T22:59:33;1.40;99.90
64715;DHT22;51144;53.002;6.506;2023-02-08T23:01:59;1.40;99.90
64715;DHT22;51144;53.002;6.506;2023-02-08T23:04:26;1.40;99.90
64715;DHT22;51144;53.002;6.506;2023-02-08T23:06:52;1.40;99.90
64715;DHT22;51144;53.002;6.506;2023-02-08T23:09:18;1.40;99.90
64715;DHT22;51144;53.002;6.506;2023-02-08T23:11:43;1.40;99.90
64715;DHT22;51144;53.002;6.506;2023-02-08T23:14:09;1.40;99.90
64715;DHT22;51144;53.002;6.506;2023-02-08T23:16:35;1.40;99.90
64715;DHT22;51144;53.002;6.506;2023-02-08T23:19:01;1.40;99.90
64715;DHT22;51144;53.002;6.506;2023-02-08T23:21:27;1.30;99.90
64715;DHT22;51144;53.002;6.506;2023-02-08T23:23:52;1.30;99.90
64715;DHT22;51144;53.002;6.506;2023-02-08T23:26:20;1.20;99.90
64715;DHT22;51144;53.002;6.506;2023-02-08T23:28:49;1.20;99.90
64715;DHT22;51144;53.002;6.506;2023-02-08T23:31:15;1.20;99.90
64715;DHT22;51144;53.002;6.506;2023-02-08T23:33:40;1.20;99.90
64715;DHT22;51144;53.002;6.506;2023-02-08T23:36:08;1.20;99.90
64715;DHT22;51144;53.002;6.506;2023-02-08T23:38:35;1.10;99.90
64715;DHT22;51144;53.002;6.506;2023-02-08T23:41:15;1.10;99.90
64715;DHT22;51144;53.002;6.506;2023-02-08T23:43:41;1.10;99.90
64715;DHT22;51144;53.002;6.506;2023-02-08T23:46:17;1.10;99.90
64715;DHT22;51144;53.002;6.506;2023-02-08T23:48:43;1.10;99.90
64715;DHT22;51144;53.002;6.506;2023-02-08T23:51:11;1.10;99.90
64715;DHT22;51144;53.002;6.506;2023-02-08T23:53:37;1.10;99.90
64715;DHT22;51144;53.002;6.506;2023-02-08T23:56:18;1.10;99.90
64715;DHT22;51144;53.002;6.506;2023-02-08T23:58:45;1.10;99.90
